createdAt,value
2023-11-25T00:01:02.036Z,4.90
2023-11-25T00:03:36.144Z,5.00
2023-11-25T00:06:06.595Z,4.70
2023-11-25T00:08:36.148Z,4.60
2023-11-25T00:11:14.657Z,4.50
2023-11-25T00:13:51.081Z,4.40
2023-11-25T00:16:28.084Z,4.20
2023-11-25T00:18:57.020Z,4.40
2023-11-25T00:21:27.500Z,4.30
2023-11-25T00:23:56.050Z,4.30
2023-11-25T00:26:26.909Z,4.30
2023-11-25T00:29:08.655Z,4.20
2023-11-25T00:31:39.468Z,4.10
2023-11-25T00:34:08.606Z,4.00
2023-11-25T00:36:43.815Z,4.30
2023-11-25T00:39:12.901Z,4.20
2023-11-25T00:41:45.086Z,4.00
2023-11-25T00:44:16.374Z,4.00
2023-11-25T00:46:45.273Z,3.90
2023-11-25T00:49:16.053Z,3.90
2023-11-25T00:51:43.615Z,3.90
2023-11-25T00:54:11.862Z,3.90
2023-11-25T00:56:45.277Z,3.90
2023-11-25T00:59:25.374Z,4.20
2023-11-25T01:01:54.191Z,4.00
2023-11-25T01:04:25.899Z,4.00
2023-11-25T01:06:54.460Z,4.00
2023-11-25T01:09:26.906Z,3.90
2023-11-25T01:11:57.624Z,4.00
2023-11-25T01:14:28.542Z,3.90
2023-11-25T01:17:03.828Z,4.00
2023-11-25T01:19:36.379Z,4.00
2023-11-25T01:22:09.995Z,4.00
2023-11-25T01:24:42.312Z,4.00
2023-11-25T01:27:24.690Z,4.20
2023-11-25T01:29:56.977Z,3.90
2023-11-25T01:32:28.983Z,3.90
2023-11-25T01:34:57.424Z,4.10
2023-11-25T01:37:27.955Z,3.90
2023-11-25T01:39:56.729Z,3.80
2023-11-25T01:42:26.017Z,3.90
2023-11-25T01:44:56.382Z,3.80
2023-11-25T01:47:25.183Z,3.80
2023-11-25T01:49:54.126Z,4.00
2023-11-25T01:52:31.643Z,3.80
2023-11-25T01:55:10.724Z,3.70
2023-11-25T01:57:39.564Z,3.80
2023-11-25T02:00:19.130Z,3.80
2023-11-25T02:02:54.108Z,3.80
2023-11-25T02:05:25.549Z,3.90
2023-11-25T02:07:54.342Z,3.80
2023-11-25T02:10:22.808Z,3.80
2023-11-25T02:12:51.264Z,4.00
2023-11-25T02:15:35.467Z,4.00
2023-11-25T02:18:08.513Z,3.90
2023-11-25T02:20:39.006Z,3.90
2023-11-25T02:23:29.040Z,3.80
2023-11-25T02:25:57.855Z,3.80
2023-11-25T02:28:31.871Z,3.80
2023-11-25T02:31:04.620Z,3.90
2023-11-25T02:33:41.501Z,3.90
2023-11-25T02:36:10.573Z,3.90
2023-11-25T02:38:40.731Z,3.90
2023-11-25T02:41:10.199Z,4.10
2023-11-25T02:43:38.749Z,3.90
2023-11-25T02:46:07.594Z,4.20
2023-11-25T02:48:42.156Z,4.00
2023-11-25T02:51:16.017Z,4.00
2023-11-25T02:53:46.517Z,4.10
2023-11-25T02:56:16.187Z,3.90
2023-11-25T02:58:45.548Z,3.90
2023-11-25T03:01:15.318Z,3.90
2023-11-25T03:03:49.202Z,3.90
2023-11-25T03:06:23.356Z,3.90
2023-11-25T03:08:53.331Z,4.10
2023-11-25T03:11:23.752Z,3.90
2023-11-25T03:13:52.074Z,3.90
2023-11-25T03:16:33.379Z,3.90
2023-11-25T03:19:10.544Z,3.90
2023-11-25T03:21:57.726Z,3.90
2023-11-25T03:24:27.496Z,4.10
2023-11-25T03:27:04.009Z,4.20
2023-11-25T03:30:07.950Z,3.90
2023-11-25T03:32:41.317Z,3.90
2023-11-25T03:35:15.178Z,4.00
2023-11-25T03:37:50.085Z,4.20
2023-11-25T03:40:21.626Z,4.10
2023-11-25T03:42:49.973Z,4.00
2023-11-25T03:45:19.030Z,4.10
2023-11-25T03:47:54.500Z,4.00
2023-11-25T03:50:22.975Z,4.20
2023-11-25T03:52:56.902Z,4.10
2023-11-25T03:55:29.701Z,4.10
2023-11-25T03:57:58.243Z,4.10
2023-11-25T04:00:27.006Z,4.10
2023-11-25T04:02:55.961Z,4.10
2023-11-25T04:05:25.458Z,4.20
2023-11-25T04:07:54.975Z,4.20
2023-11-25T04:10:23.932Z,4.30
2023-11-25T04:13:01.397Z,4.10
2023-11-25T04:15:33.932Z,4.00
2023-11-25T04:18:03.105Z,4.30
2023-11-25T04:20:34.803Z,4.20
2023-11-25T04:23:07.980Z,4.30
2023-11-25T04:25:40.320Z,4.20
2023-11-25T04:28:28.778Z,4.40
2023-11-25T04:31:22.881Z,4.30
2023-11-25T04:33:53.584Z,4.20
2023-11-25T04:36:21.944Z,4.20
2023-11-25T04:38:50.627Z,4.20
2023-11-25T04:41:19.840Z,4.20
2023-11-25T04:43:50.032Z,4.20
2023-11-25T04:46:18.899Z,4.20
2023-11-25T04:48:47.471Z,4.20
2023-11-25T04:51:23.244Z,4.20
2023-11-25T04:53:57.625Z,4.40
2023-11-25T04:56:28.275Z,4.40
2023-11-25T04:58:58.264Z,4.50
2023-11-25T05:01:31.564Z,4.20
2023-11-25T05:04:06.502Z,4.40
2023-11-25T05:06:35.187Z,4.20
2023-11-25T05:09:07.902Z,4.20
2023-11-25T05:11:39.493Z,4.20
2023-11-25T05:14:16.992Z,4.20
2023-11-25T05:16:45.974Z,4.10
2023-11-25T05:19:14.637Z,4.20
2023-11-25T05:21:44.749Z,4.20
2023-11-25T05:24:14.155Z,4.30
2023-11-25T05:26:42.380Z,4.30
2023-11-25T05:29:12.853Z,4.30
2023-11-25T05:31:43.924Z,4.50
2023-11-25T05:34:14.143Z,4.20
2023-11-25T05:36:42.640Z,4.30
2023-11-25T05:39:14.971Z,4.50
2023-11-25T05:41:44.268Z,4.30
2023-11-25T05:44:15.614Z,4.30
2023-11-25T05:46:46.837Z,4.30
2023-11-25T05:49:18.511Z,4.50
2023-11-25T05:51:46.966Z,4.30
2023-11-25T05:54:19.046Z,4.30
2023-11-25T05:56:50.009Z,4.30
2023-11-25T05:59:20.085Z,4.30
2023-11-25T06:01:48.553Z,4.20
2023-11-25T06:04:20.704Z,4.20
2023-11-25T06:06:51.350Z,4.20
2023-11-25T06:09:19.862Z,4.20
2023-11-25T06:11:52.550Z,4.20
2023-11-25T06:14:25.350Z,4.00
2023-11-25T06:17:01.825Z,4.40
2023-11-25T06:19:32.321Z,4.20
2023-11-25T06:22:02.288Z,4.40
2023-11-25T06:24:30.940Z,4.20
2023-11-25T06:26:59.205Z,4.20
2023-11-25T06:29:29.288Z,4.20
2023-11-25T06:31:57.656Z,4.10
2023-11-25T06:34:25.966Z,4.10
2023-11-25T06:36:54.398Z,4.10
2023-11-25T06:39:25.031Z,4.10
2023-11-25T06:41:54.789Z,4.40
2023-11-25T06:44:23.188Z,4.20
2023-11-25T06:46:53.972Z,4.00
2023-11-25T06:49:22.678Z,4.10
2023-11-25T06:51:51.111Z,4.10
2023-11-25T06:54:19.440Z,4.30
2023-11-25T06:56:48.974Z,4.10
2023-11-25T06:59:18.164Z,4.00
2023-11-25T07:01:47.202Z,4.00
2023-11-25T07:04:17.031Z,4.00
2023-11-25T07:06:45.654Z,4.20
2023-11-25T07:09:15.182Z,4.00
2023-11-25T07:11:45.060Z,4.30
2023-11-25T07:14:14.023Z,4.00
2023-11-25T07:16:42.504Z,4.10
2023-11-25T07:19:10.923Z,4.20
2023-11-25T07:21:40.674Z,4.10
2023-11-25T07:24:09.987Z,4.20
2023-11-25T07:26:42.728Z,4.20
2023-11-25T07:29:12.057Z,4.40
2023-11-25T07:31:40.523Z,4.20
2023-11-25T07:34:10.229Z,4.40
2023-11-25T07:36:42.395Z,4.20
2023-11-25T07:39:12.598Z,4.20
2023-11-25T07:41:41.892Z,4.50
2023-11-25T07:44:10.114Z,4.40
2023-11-25T07:46:38.507Z,4.50
2023-11-25T08:01:05.184Z,4.10
2023-11-25T08:03:34.717Z,4.20
2023-11-25T08:06:02.964Z,4.30
2023-11-25T08:08:31.148Z,4.30
2023-11-25T08:10:59.676Z,4.50
2023-11-25T08:13:28.295Z,4.30
2023-11-25T08:15:56.907Z,4.40
2023-11-25T08:18:26.871Z,4.60
2023-11-25T08:20:55.218Z,4.50
2023-11-25T08:23:23.570Z,4.50
2023-11-25T08:25:51.934Z,4.40
2023-11-25T08:28:20.310Z,4.80
2023-11-25T08:30:48.493Z,4.60
2023-11-25T08:33:16.802Z,4.90
2023-11-25T08:35:46.885Z,4.70
2023-11-25T08:38:15.495Z,4.80
2023-11-25T08:40:44.054Z,4.90
2023-11-25T08:43:15.046Z,5.10
2023-11-25T08:45:48.897Z,4.90
2023-11-25T08:48:17.617Z,5.00
2023-11-25T08:50:47.508Z,4.90
2023-11-25T08:53:17.488Z,4.80
2023-11-25T08:55:47.081Z,4.70
2023-11-25T08:58:18.050Z,4.70
2023-11-25T09:00:46.616Z,4.60
2023-11-25T09:03:16.178Z,4.60
2023-11-25T09:05:47.766Z,4.70
2023-11-25T09:08:18.894Z,5.10
2023-11-25T09:10:47.550Z,4.90
2023-11-25T09:13:24.144Z,5.10
2023-11-25T09:15:53.285Z,5.40
2023-11-25T09:18:21.814Z,5.30
2023-11-25T09:20:52.008Z,5.40
2023-11-25T09:23:23.410Z,5.50
2023-11-25T09:25:55.071Z,5.60
2023-11-25T09:28:23.871Z,5.70
2023-11-25T09:31:02.859Z,5.90
2023-11-25T09:33:45.006Z,5.80
2023-11-25T09:36:26.636Z,5.70
2023-11-25T09:39:04.932Z,5.80
2023-11-25T09:41:35.762Z,5.60
2023-11-25T09:44:08.335Z,5.60
2023-11-25T09:46:36.947Z,5.90
2023-11-25T09:49:05.223Z,5.70
2023-11-25T09:51:35.123Z,5.80
2023-11-25T09:54:09.727Z,6.00
2023-11-25T09:56:42.784Z,6.10
2023-11-25T09:59:11.309Z,6.30
2023-11-25T10:01:40.470Z,6.60
2023-11-25T10:04:12.462Z,6.70
2023-11-25T10:10:30.850Z,6.80
2023-11-25T10:13:00.345Z,6.90
2023-11-25T10:15:48.018Z,7.10
2023-11-25T10:18:21.051Z,7.10
2023-11-25T10:20:59.024Z,6.90
2023-11-25T10:23:32.027Z,6.90
2023-11-25T10:26:04.723Z,7.10
2023-11-25T10:28:37.947Z,6.90
2023-11-25T10:31:09.508Z,6.90
2023-11-25T10:33:42.173Z,6.80
2023-11-25T10:36:11.451Z,6.70
2023-11-25T11:12:53.293Z,6.30
2023-11-25T13:00:55.559Z,5.40
2023-11-25T13:07:41.534Z,5.40
2023-11-25T13:10:10.809Z,5.30
2023-11-25T13:12:41.317Z,5.20
2023-11-25T13:30:07.627Z,5.10
2023-11-25T14:05:58.979Z,5.10
2023-11-25T14:24:59.928Z,5.10
2023-11-25T14:51:10.764Z,5.20
2023-11-25T14:53:39.982Z,5.20
2023-11-25T15:02:27.785Z,5.10
2023-11-25T15:25:43.916Z,5.10
2023-11-25T16:09:27.068Z,5.00
2023-11-25T16:11:56.245Z,5.00
2023-11-25T16:25:48.246Z,5.00
2023-11-25T16:32:41.460Z,4.80
2023-11-25T16:35:13.549Z,5.10
2023-11-25T16:55:03.385Z,4.90
2023-11-25T16:57:33.242Z,5.10
2023-11-25T17:00:17.801Z,5.00
2023-11-25T17:02:46.753Z,5.00
2023-11-25T19:26:04.942Z,4.40
2023-11-25T19:37:25.338Z,4.40
2023-11-25T22:59:39.380Z,4.10
2023-11-25T23:02:08.965Z,4.10
2023-11-25T23:04:38.316Z,4.40
2023-11-25T23:07:06.849Z,4.20
2023-11-25T23:09:35.330Z,4.20
2023-11-25T23:12:04.343Z,4.10
2023-11-25T23:14:33.221Z,4.20
2023-11-25T23:17:04.588Z,4.10
2023-11-25T23:19:39.461Z,4.30
2023-11-25T23:22:08.116Z,4.00
2023-11-25T23:25:56.504Z,4.20
2023-11-25T23:28:25.539Z,3.90
2023-11-25T23:30:54.880Z,3.90
